Cape Palmerston — CFN5493 — position and weather

sailwx.info

Track history (hours):
 
Tides and Currents Weather Stations Pressure Air Temp Water Temp Dewpoint Dewpoint Depression Visibility Wind Speed Wind Dir Waves Ship Positions

Cape Palmerston

Last reported at 2018-Aug-19 22:30 UTC. Time now 2018-Aug-19 22:51 UTC.
Position N 50°02' W 125°14'.

Length 15 m; draft 0.8 m.

Type: SAR. MMSI: 316017163.

Date/timePositionNaut miles runAvg speedWind from/ knotsBaromVisibWave heightAir tempDewpointWater temp
2018-Aug-19 22:30N 50°02' W 125°14'0 0.0
2018-Aug-19 22:00N 50°02' W 125°14'0 0.0
2018-Aug-19 21:30N 50°02' W 125°14'0 0.0
2018-Aug-19 21:00N 50°02' W 125°14'0 0.0
2018-Aug-19 20:30N 50°02' W 125°14'0 0.0
2018-Aug-19 20:00N 50°02' W 125°14'0 0.0
2018-Aug-19 19:30N 50°02' W 125°14'0 0.0
2018-Aug-19 19:00N 50°02' W 125°14'0 0.0
2018-Aug-19 18:30N 50°02' W 125°14'0 0.0
2018-Aug-19 18:00N 50°02' W 125°14'0 0.0
2018-Aug-19 17:30N 50°02' W 125°14'0 0.0
2018-Aug-19 17:00N 50°02' W 125°14'0 0.0
2018-Aug-19 16:30N 50°02' W 125°14'0 0.0
2018-Aug-19 16:00N 50°02' W 125°14'0 0.0
2018-Aug-19 15:30N 50°02' W 125°14'0 0.0
2018-Aug-19 15:00N 50°02' W 125°14'0 0.0
2018-Aug-19 14:30N 50°02' W 125°14'0 0.0
2018-Aug-19 14:00N 50°02' W 125°14'0 0.0
2018-Aug-19 13:30N 50°02' W 125°14'0 0.0
2018-Aug-19 13:00N 50°02' W 125°14'0 0.0
2018-Aug-19 12:30N 50°02' W 125°14'0 0.0
2018-Aug-19 12:00N 50°02' W 125°14'0 0.0
2018-Aug-19 11:30N 50°02' W 125°14'0 0.0
2018-Aug-19 11:00N 50°02' W 125°14'0 0.0
2018-Aug-19 10:30N 50°02' W 125°14'0 0.0
2018-Aug-19 10:00N 50°02' W 125°14'0 0.0
2018-Aug-19 09:31N 50°02' W 125°14'0 0.0
2018-Aug-19 08:58N 50°02' W 125°14'0 0.0
2018-Aug-19 08:28N 50°02' W 125°14'2 5.4
2018-Aug-19 08:00N 50°04' W 125°16'713.3
2018-Aug-19 07:28N 50°10' W 125°22'1 3.0
2018-Aug-19 07:00N 50°11' W 125°21'1 2.8
2018-Aug-19 06:30N 50°10' W 125°22'2 3.1
2018-Aug-19 06:00N 50°08' W 125°21'815.9
2018-Aug-19 05:30N 50°02' W 125°14'0 0.1
2018-Aug-19 04:58N 50°02' W 125°14'0 0.0
2018-Aug-19 04:28N 50°02' W 125°14'0 0.0
2018-Aug-19 03:58N 50°02' W 125°14'0 0.0
2018-Aug-19 03:28N 50°02' W 125°14'0 0.0
2018-Aug-19 02:58N 50°02' W 125°14'0 0.0
2018-Aug-19 02:28N 50°02' W 125°14'0 0.0
2018-Aug-19 01:55N 50°02' W 125°14'0 0.0
2018-Aug-19 01:28N 50°02' W 125°14'0 0.0
2018-Aug-19 00:58N 50°02' W 125°14'0 0.0
2018-Aug-19 00:28N 50°02' W 125°14'0 0.0
2018-Aug-18 23:58N 50°02' W 125°14'0 0.0
2018-Aug-18 23:28N 50°02' W 125°14'0 0.0
2018-Aug-18 22:58N 50°02' W 125°14'0 0.0
2018-Aug-18 22:25N 50°02' W 125°14'0 0.0
2018-Aug-18 21:58N 50°02' W 125°14'0 0.0
2018-Aug-18 21:28N 50°02' W 125°14'0 0.0
2018-Aug-18 20:58N 50°02' W 125°14'0 0.0
2018-Aug-18 20:19N 50°02' W 125°14'0 0.0
2018-Aug-18 19:58N 50°02' W 125°14'1 1.0
2018-Aug-18 19:27N 50°02' W 125°15'1 2.2
2018-Aug-18 19:00N 50°01' W 125°14'1 2.0
2018-Aug-18 18:30N 50°01' W 125°12'0 0.0
2018-Aug-18 17:55N 50°01' W 125°12'0 0.3
2018-Aug-18 17:29N 50°01' W 125°12'1 2.5
2018-Aug-18 16:59N 50°02' W 125°14'0 0.4
2018-Aug-18 16:29N 50°02' W 125°14'0 0.0
2018-Aug-18 15:59N 50°02' W 125°14'0 0.0
2018-Aug-18 15:26N 50°02' W 125°14'0 0.0
2018-Aug-18 14:59N 50°02' W 125°14'0 0.0
2018-Aug-18 14:29N 50°02' W 125°14'0 0.0
2018-Aug-18 13:56N 50°02' W 125°14'0 0.0
2018-Aug-18 13:29N 50°02' W 125°14'0 0.0
2018-Aug-18 12:59N 50°02' W 125°14'0 0.0
2018-Aug-18 12:29N 50°02' W 125°14'0 0.0
2018-Aug-18 11:59N 50°02' W 125°14'0 0.0
2018-Aug-18 11:29N 50°02' W 125°14'0 0.0
2018-Aug-18 10:59N 50°02' W 125°14'0 0.0
2018-Aug-18 10:29N 50°02' W 125°14'0 0.0
2018-Aug-18 09:59N 50°02' W 125°14'0 0.0
2018-Aug-18 09:29N 50°02' W 125°14'0 0.0
2018-Aug-18 08:59N 50°02' W 125°14'0 0.0
2018-Aug-18 08:29N 50°02' W 125°14'0 0.0
2018-Aug-18 07:59N 50°02' W 125°14'0 0.0
2018-Aug-18 07:29N 50°02' W 125°14'0 0.0
2018-Aug-18 06:59N 50°02' W 125°14'0 0.0
2018-Aug-18 06:29N 50°02' W 125°14'0 0.0
2018-Aug-18 05:59N 50°02' W 125°14'0 0.0
2018-Aug-18 05:26N 50°02' W 125°14'0 0.0
2018-Aug-18 04:56N 50°02' W 125°14'0 0.0
2018-Aug-18 04:29N 50°02' W 125°14'0 0.0
2018-Aug-18 03:56N 50°02' W 125°14'0 0.0
2018-Aug-18 03:29N 50°02' W 125°14'2 5.1
2018-Aug-18 03:01N 49°60' W 125°12'815.6
2018-Aug-18 02:28N 49°57' W 124°60'0 0.1
2018-Aug-18 01:59N 49°57' W 124°60'0 0.2
2018-Aug-18 01:30N 49°57' W 124°60'1 1.0
2018-Aug-18 00:55N 49°57' W 125°00'820.9
2018-Aug-18 00:30N 50°00' W 125°13'2 3.0
2018-Aug-17 23:55N 50°02' W 125°14'0 0.0
2018-Aug-17 23:28N 50°02' W 125°14'0 0.0
2018-Aug-17 22:58N 50°02' W 125°14'0 0.0
2018-Aug-17 22:28N 50°02' W 125°14'0 0.0
2018-Aug-17 21:58N 50°02' W 125°14'0 0.0
2018-Aug-17 21:28N 50°02' W 125°14'0 0.0
2018-Aug-17 20:58N 50°02' W 125°14'0 0.0
2018-Aug-17 20:28N 50°02' W 125°14'0 0.0
2018-Aug-17 19:58N 50°02' W 125°14'0 0.0
2018-Aug-17 19:28N 50°02' W 125°14'0 0.0
2018-Aug-17 18:58N 50°02' W 125°14'0 0.0
2018-Aug-17 18:28N 50°02' W 125°14'0 0.0
2018-Aug-17 17:58N 50°02' W 125°14'0 0.0
2018-Aug-17 17:28N 50°02' W 125°14'0 0.0
2018-Aug-17 16:58N 50°02' W 125°14'0 0.0
2018-Aug-17 16:28N 50°02' W 125°14'0 0.0
2018-Aug-17 15:58N 50°02' W 125°14'0 0.0
2018-Aug-17 15:28N 50°02' W 125°14'0 0.0
2018-Aug-17 14:58N 50°02' W 125°14'0 0.0
2018-Aug-17 14:28N 50°02' W 125°14'0 0.0
2018-Aug-17 13:28N 50°02' W 125°14'0 0.0
2018-Aug-17 12:58N 50°02' W 125°14'0 0.0
2018-Aug-17 12:28N 50°02' W 125°14'0 0.0
2018-Aug-17 11:58N 50°02' W 125°14'0 0.0
2018-Aug-17 11:28N 50°02' W 125°14'0 0.0
2018-Aug-17 10:58N 50°02' W 125°14'0 0.0
2018-Aug-17 10:28N 50°02' W 125°14'0 0.0
2018-Aug-17 09:58N 50°02' W 125°14'0 0.0
2018-Aug-17 09:28N 50°02' W 125°14'0 0.0
2018-Aug-17 08:58N 50°02' W 125°14'0 0.0
2018-Aug-17 08:28N 50°02' W 125°14'0 0.0
2018-Aug-17 07:58N 50°02' W 125°14'0 0.0
2018-Aug-17 07:28N 50°02' W 125°14'0 0.0
2018-Aug-17 06:58N 50°02' W 125°14'0 0.0
2018-Aug-17 06:28N 50°02' W 125°14'0 0.0
2018-Aug-17 05:58N 50°02' W 125°14'0 0.0
2018-Aug-17 05:28N 50°02' W 125°14'0 0.0
2018-Aug-17 04:58N 50°02' W 125°14'0 0.0
2018-Aug-17 04:28N 50°02' W 125°14'0 0.0
2018-Aug-17 03:58N 50°02' W 125°14'0 0.0
2018-Aug-17 03:28N 50°02' W 125°14'0 0.0
2018-Aug-17 02:58N 50°02' W 125°14'0 0.0
2018-Aug-17 02:28N 50°02' W 125°14'0 0.0
2018-Aug-17 01:55N 50°02' W 125°14'0 0.0
2018-Aug-17 01:28N 50°02' W 125°14'0 0.0
2018-Aug-17 00:58N 50°02' W 125°14'0 0.0
2018-Aug-17 00:28N 50°02' W 125°14'0 0.0
2018-Aug-16 23:58N 50°02' W 125°14'0 0.0
2018-Aug-16 23:28N 50°02' W 125°14'0 0.0
2018-Aug-16 22:58N 50°02' W 125°14'0 0.0
2018-Aug-16 22:28N 50°02' W 125°14'0 0.0
2018-Aug-16 21:58N 50°02' W 125°14'0 0.0
2018-Aug-16 21:16N 50°02' W 125°14'0 0.0
2018-Aug-16 20:55N 50°02' W 125°14'0 0.0
2018-Aug-16 20:25N 50°02' W 125°14'0 0.0
2018-Aug-16 19:43N 50°02' W 125°14'0 0.0
2018-Aug-16 19:28N 50°02' W 125°14'0 0.0
2018-Aug-16 18:58N 50°02' W 125°14'0 0.0
2018-Aug-16 18:28N 50°02' W 125°14'0 0.0
2018-Aug-16 17:58N 50°02' W 125°14'0 0.0
2018-Aug-16 17:28N 50°02' W 125°14'0 0.0
2018-Aug-16 16:58N 50°02' W 125°14'0 0.0
2018-Aug-16 16:28N 50°02' W 125°14'0 0.0
2018-Aug-16 15:58N 50°02' W 125°14'0 0.0
2018-Aug-16 15:28N 50°02' W 125°14'0 0.0
2018-Aug-16 14:58N 50°02' W 125°14'0 0.0
2018-Aug-16 14:28N 50°02' W 125°14'0 0.0
2018-Aug-16 13:55N 50°02' W 125°14'0 0.0
2018-Aug-16 13:25N 50°02' W 125°14'0 0.0
2018-Aug-16 12:55N 50°02' W 125°14'0 0.0
2018-Aug-16 12:20N 50°02' W 125°14'1 4.0
2018-Aug-16 12:01N 50°03' W 125°13'1 2.1
2018-Aug-16 11:23N 50°02' W 125°14'0 0.0
2018-Aug-16 10:59N 50°02' W 125°14'0 0.0
2018-Aug-16 10:23N 50°02' W 125°14'0 0.0
2018-Aug-16 09:44N 50°02' W 125°14'0 0.0
2018-Aug-16 09:29N 50°02' W 125°14'0 0.0
2018-Aug-16 08:59N 50°02' W 125°14'1 2.7
2018-Aug-16 08:31N 50°03' W 125°13'1 2.2
2018-Aug-16 07:56N 50°02' W 125°14'0 0.0
2018-Aug-16 07:26N 50°02' W 125°14'0 0.0
2018-Aug-16 06:56N 50°02' W 125°14'0 0.0
2018-Aug-16 06:26N 50°02' W 125°14'0 0.0
2018-Aug-16 05:56N 50°02' W 125°14'0 0.0
2018-Aug-16 05:26N 50°02' W 125°14'0 0.0
2018-Aug-16 04:59N 50°02' W 125°14'0 0.0
2018-Aug-16 04:23N 50°02' W 125°14'0 0.0
2018-Aug-16 03:50N 50°02' W 125°14'0 0.0
2018-Aug-16 03:29N 50°02' W 125°14'0 0.0
2018-Aug-16 02:59N 50°02' W 125°14'0 0.0
2018-Aug-16 02:29N 50°02' W 125°14'0 0.0
2018-Aug-16 01:59N 50°02' W 125°14'0 0.0
2018-Aug-16 01:20N 50°02' W 125°14'0 0.0
2018-Aug-16 00:56N 50°02' W 125°14'0 0.0
2018-Aug-16 00:29N 50°02' W 125°14'0 0.0
2018-Aug-15 23:59N 50°02' W 125°14'0 0.0
2018-Aug-15 23:23N 50°02' W 125°14'0 0.0
2018-Aug-15 22:59N 50°02' W 125°14'0 0.0
2018-Aug-15 19:32N 50°02' W 125°14'0 0.0
2018-Aug-15 19:23N 50°02' W 125°14'0 0.0
2018-Aug-15 18:56N 50°02' W 125°14'1 1.8
2018-Aug-15 18:30N 50°02' W 125°14'1 0.3
2018-Aug-15 16:12N 50°02' W 125°14'0 0.0
2018-Aug-15 16:00N 50°02' W 125°14'0 0.0
2018-Aug-15 15:27N 50°02' W 125°14'0 0.0
2018-Aug-15 14:57N 50°02' W 125°14'0 0.0
2018-Aug-15 14:27N 50°02' W 125°14'0 0.0
2018-Aug-15 13:51N 50°02' W 125°14'0 0.0
2018-Aug-15 13:27N 50°02' W 125°14'0 0.0
2018-Aug-15 12:57N 50°02' W 125°14'0 0.0
2018-Aug-15 12:27N 50°02' W 125°14'0 0.0
2018-Aug-15 11:57N 50°02' W 125°14'0 0.0
2018-Aug-15 10:15N 50°02' W 125°14'0 0.0
2018-Aug-15 09:57N 50°02' W 125°14'0 0.0
2018-Aug-15 09:27N 50°02' W 125°14'0 0.0
2018-Aug-15 08:51N 50°02' W 125°14'0 0.0
2018-Aug-15 08:21N 50°02' W 125°14'0 0.0
2018-Aug-15 07:51N 50°02' W 125°14'0 0.0
2018-Aug-15 06:33N 50°02' W 125°14'0 0.0
2018-Aug-15 06:24N 50°02' W 125°14'411.1
2018-Aug-15 06:00N 49°60' W 125°09'815.9
2018-Aug-15 05:30N 50°04' W 124°59'713.0
2018-Aug-15 05:00N 50°00' W 125°07'5 7.9
2018-Aug-15 04:21N 50°02' W 125°14'0 0.0
2018-Aug-15 02:24N 50°02' W 125°14'0 0.0
2018-Aug-15 01:45N 50°02' W 125°14'0 0.0
2018-Aug-15 01:30N 50°02' W 125°14'0 0.0
2018-Aug-15 00:57N 50°02' W 125°14'0 0.0
2018-Aug-14 23:51N 50°02' W 125°14'0 0.0
2018-Aug-14 23:24N 50°02' W 125°14'0 0.0
2018-Aug-14 23:00N 50°02' W 125°14'0 0.0
2018-Aug-14 22:18N 50°02' W 125°14'0 0.0
2018-Aug-14 22:00N 50°02' W 125°14'0 0.0
2018-Aug-14 21:30N 50°02' W 125°14'0 0.0
2018-Aug-14 21:00N 50°02' W 125°14'0 0.0
2018-Aug-14 20:30N 50°02' W 125°14'0 0.0
2018-Aug-14 19:54N 50°02' W 125°14'0 0.0
2018-Aug-14 19:30N 50°02' W 125°14'0 0.0
2018-Aug-14 18:24N 50°02' W 125°14'0 0.0
2018-Aug-14 17:45N 50°02' W 125°14'0 0.0
2018-Aug-14 17:30N 50°02' W 125°14'0 0.0
2018-Aug-14 16:12N 50°02' W 125°14'0 0.0
2018-Aug-14 16:00N 50°02' W 125°14'0 0.0
2018-Aug-14 14:24N 50°02' W 125°14'0 0.0
2018-Aug-14 13:42N 50°02' W 125°14'0 0.0
2018-Aug-14 13:27N 50°02' W 125°14'0 0.0
2018-Aug-14 12:57N 50°02' W 125°14'0 0.0
2018-Aug-14 12:27N 50°02' W 125°14'0 0.0
2018-Aug-14 11:33N 50°02' W 125°14'0 0.0
2018-Aug-14 11:21N 50°02' W 125°14'0 0.0
2018-Aug-14 10:27N 50°02' W 125°14'1 2.1
2018-Aug-14 10:00N 50°01' W 125°13'815.2
2018-Aug-14 09:31N 50°03' W 125°02'0 0.5
2018-Aug-14 09:01N 50°03' W 125°01'815.8
2018-Aug-14 08:31N 50°01' W 125°13'1 1.5
2018-Aug-14 08:00N 50°02' W 125°14'0 0.0
2018-Aug-14 07:30N 50°02' W 125°14'0 0.0
2018-Aug-14 07:00N 50°02' W 125°14'0 0.0
2018-Aug-14 06:30N 50°02' W 125°14'0 0.0
2018-Aug-14 06:01N 50°02' W 125°14'0 0.0
2018-Aug-14 05:28N 50°02' W 125°14'0 0.0
2018-Aug-14 04:59N 50°02' W 125°14'0 0.0
2018-Aug-14 04:00N 50°02' W 125°14'0 0.0
2018-Aug-14 03:30N 50°02' W 125°14'0 0.0
2018-Aug-14 02:41N 50°02' W 125°14'0 0.0
2018-Aug-14 02:30N 50°02' W 125°14'0 0.0
2018-Aug-14 01:58N 50°02' W 125°14'0 0.0
2018-Aug-14 01:30N 50°02' W 125°14'0 0.0
2018-Aug-14 01:00N 50°02' W 125°14'0 0.0
2018-Aug-14 00:30N 50°02' W 125°14'0 0.0
2018-Aug-14 00:00N 50°02' W 125°14'0 0.0
2018-Aug-13 23:30N 50°02' W 125°14'0 0.0
2018-Aug-13 23:01N 50°02' W 125°14'0 0.0
2018-Aug-13 22:31N 50°02' W 125°14'0 0.0
2018-Aug-13 22:00N 50°02' W 125°14'0 0.0
2018-Aug-13 21:31N 50°02' W 125°14'0 0.0
2018-Aug-13 21:01N 50°02' W 125°14'0 0.0
2018-Aug-13 20:31N 50°02' W 125°14'0 0.0
2018-Aug-13 20:01N 50°02' W 125°14'0 0.0
2018-Aug-13 19:31N 50°02' W 125°14'0 0.0
2018-Aug-13 19:00N 50°02' W 125°14'0 0.0
2018-Aug-13 18:30N 50°02' W 125°14'0 0.0
2018-Aug-13 18:00N 50°02' W 125°14'0 0.0
2018-Aug-13 17:30N 50°02' W 125°14'0 0.0
2018-Aug-13 17:01N 50°02' W 125°14'0 0.0
2018-Aug-13 16:30N 50°02' W 125°14'0 0.0
2018-Aug-13 16:00N 50°02' W 125°14'0 0.0
2018-Aug-13 14:19N 50°02' W 125°14'0 0.0
2018-Aug-13 14:01N 50°02' W 125°14'0 0.0
2018-Aug-13 13:30N 50°02' W 125°14'0 0.0
2018-Aug-13 13:01N 50°02' W 125°14'0 0.0
2018-Aug-13 12:31N 50°02' W 125°14'0 0.0
2018-Aug-13 12:00N 50°02' W 125°14'0 0.0
2018-Aug-13 11:30N 50°02' W 125°14'0 0.0
2018-Aug-13 11:01N 50°02' W 125°14'0 0.0
2018-Aug-13 10:30N 50°02' W 125°14'0 0.0
2018-Aug-13 10:00N 50°02' W 125°14'0 0.0
2018-Aug-13 09:30N 50°02' W 125°14'0 0.0
2018-Aug-13 09:00N 50°02' W 125°14'0 0.0
2018-Aug-13 08:30N 50°02' W 125°14'0 0.0
2018-Aug-13 08:01N 50°02' W 125°14'0 0.0
2018-Aug-13 07:31N 50°02' W 125°14'0 0.0
2018-Aug-13 07:01N 50°02' W 125°14'0 0.0
2018-Aug-13 06:30N 50°02' W 125°14'0 0.0
2018-Aug-13 06:01N 50°02' W 125°14'0 0.0
2018-Aug-13 05:30N 50°02' W 125°14'0 0.0
2018-Aug-13 05:00N 50°02' W 125°14'0 0.0
2018-Aug-13 04:30N 50°02' W 125°14'0 0.0
2018-Aug-13 04:00N 50°02' W 125°14'0 0.0
2018-Aug-13 03:30N 50°02' W 125°14'0 0.0
2018-Aug-13 03:01N 50°02' W 125°14'0 0.0
2018-Aug-13 02:30N 50°02' W 125°14'0 0.0
2018-Aug-13 02:00N 50°02' W 125°14'0 0.0
2018-Aug-13 01:30N 50°02' W 125°14'0 0.0
2018-Aug-13 01:00N 50°02' W 125°14'0 0.0
2018-Aug-13 00:30N 50°02' W 125°14'0 0.0
2018-Aug-13 00:00N 50°02' W 125°14'0 0.0
2018-Aug-12 23:30N 50°02' W 125°14'0 0.0
2018-Aug-12 23:01N 50°02' W 125°14'0 0.0
2018-Aug-12 22:30N 50°02' W 125°14'0 0.0
2018-Aug-12 22:00N 50°02' W 125°14'0 0.0
2018-Aug-12 21:31N 50°02' W 125°14'0 0.0
2018-Aug-12 21:00N 50°02' W 125°14'0 0.0
2018-Aug-12 20:31N 50°02' W 125°14'0 0.0
2018-Aug-12 20:01N 50°02' W 125°14'0 0.0
2018-Aug-12 19:31N 50°02' W 125°14'0 0.0
2018-Aug-12 19:01N 50°02' W 125°14'0 0.6
2018-Aug-12 18:30N 50°02' W 125°14'3 5.1
2018-Aug-12 18:00N 50°04' W 125°14'2 4.8
2018-Aug-12 17:31N 50°02' W 125°14'0 0.9
2018-Aug-12 16:59N 50°02' W 125°14'0 0.0
2018-Aug-12 16:23N 50°02' W 125°14'0 0.0
2018-Aug-12 15:59N 50°02' W 125°14'0 0.0
2018-Aug-12 15:29N 50°02' W 125°14'0 0.0
2018-Aug-12 14:59N 50°02' W 125°14'0 0.0
2018-Aug-12 14:29N 50°02' W 125°14'0 0.0
2018-Aug-12 13:59N 50°02' W 125°14'0 0.0
2018-Aug-12 13:29N 50°02' W 125°14'0 0.0
2018-Aug-12 12:59N 50°02' W 125°14'0 0.0
2018-Aug-12 12:29N 50°02' W 125°14'0 0.0
2018-Aug-12 11:59N 50°02' W 125°14'0 0.0
2018-Aug-12 11:29N 50°02' W 125°14'0 0.0
2018-Aug-12 10:59N 50°02' W 125°14'0 0.0
2018-Aug-12 10:29N 50°02' W 125°14'0 0.0
2018-Aug-12 09:59N 50°02' W 125°14'0 0.0
2018-Aug-12 09:29N 50°02' W 125°14'0 0.0
2018-Aug-12 08:59N 50°02' W 125°14'0 0.0
2018-Aug-12 08:29N 50°02' W 125°14'0 0.0
2018-Aug-12 07:59N 50°02' W 125°14'0 0.0
2018-Aug-12 07:29N 50°02' W 125°14'0 0.0
2018-Aug-12 06:59N 50°02' W 125°14'0 0.0
2018-Aug-12 06:29N 50°02' W 125°14'0 0.0
2018-Aug-12 05:59N 50°02' W 125°14'0 0.0
2018-Aug-12 05:23N 50°02' W 125°14'0 0.0
2018-Aug-12 04:59N 50°02' W 125°14'0 0.0
2018-Aug-12 04:29N 50°02' W 125°14'0 0.0
2018-Aug-12 03:59N 50°02' W 125°14'0 0.0
2018-Aug-12 03:29N 50°02' W 125°14'0 0.0
2018-Aug-12 02:59N 50°02' W 125°14'0 0.0
2018-Aug-12 02:29N 50°02' W 125°14'0 0.0
2018-Aug-12 01:59N 50°02' W 125°14'0 0.0
2018-Aug-12 01:29N 50°02' W 125°14'0 0.0
2018-Aug-12 00:59N 50°02' W 125°14'0 0.0
2018-Aug-12 00:23N 50°02' W 125°14'0 0.0
2018-Aug-11 23:59N 50°02' W 125°14'0 0.0
2018-Aug-11 23:29N 50°02' W 125°14'0 0.0
2018-Aug-11 22:59N 50°02' W 125°14'0 0.0
2018-Aug-11 22:29N 50°02' W 125°14'0 0.0
2018-Aug-11 21:56N 50°02' W 125°14'0 0.0
2018-Aug-11 21:29N 50°02' W 125°14'0 0.0
2018-Aug-11 20:59N 50°02' W 125°14'0 0.0
2018-Aug-11 20:26N 50°02' W 125°14'0 0.0
2018-Aug-11 19:59N 50°02' W 125°14'0 0.0
2018-Aug-11 19:29N 50°02' W 125°14'0 0.0
2018-Aug-11 18:56N 50°02' W 125°14'0 0.0
2018-Aug-11 18:28N 50°02' W 125°14'0 0.0
2018-Aug-11 17:58N 50°02' W 125°14'0 0.0
2018-Aug-11 17:28N 50°02' W 125°14'0 0.0
2018-Aug-11 16:58N 50°02' W 125°14'0 0.0
2018-Aug-11 16:28N 50°02' W 125°14'0 0.0
2018-Aug-11 15:58N 50°02' W 125°14'0 0.0
2018-Aug-11 15:25N 50°02' W 125°14'0 0.0
2018-Aug-11 14:55N 50°02' W 125°14'0 0.0
2018-Aug-11 14:28N 50°02' W 125°14'0 0.0
2018-Aug-11 13:55N 50°02' W 125°14'0 0.0
2018-Aug-11 13:25N 50°02' W 125°14'0 0.0
2018-Aug-11 12:58N 50°02' W 125°14'0 0.0
2018-Aug-11 12:25N 50°02' W 125°14'0 0.0
2018-Aug-11 11:55N 50°02' W 125°14'0 0.0
2018-Aug-11 11:07N 50°02' W 125°14'0 0.0
2018-Aug-11 10:55N 50°02' W 125°14'0 0.0
2018-Aug-11 10:28N 50°02' W 125°14'0 0.0
2018-Aug-11 09:49N 50°02' W 125°14'0 0.0
2018-Aug-11 09:25N 50°02' W 125°14'0 0.0
2018-Aug-11 08:58N 50°02' W 125°14'0 0.0
2018-Aug-11 08:25N 50°02' W 125°14'0 0.0
2018-Aug-11 07:58N 50°02' W 125°14'0 0.0
2018-Aug-11 07:19N 50°02' W 125°14'0 0.0
2018-Aug-11 06:55N 50°02' W 125°14'0 0.0
2018-Aug-11 06:28N 50°02' W 125°14'0 0.0
2018-Aug-11 05:55N 50°02' W 125°14'0 0.0
2018-Aug-11 05:25N 50°02' W 125°14'0 0.0
2018-Aug-11 04:55N 50°02' W 125°14'0 0.0
2018-Aug-11 04:25N 50°02' W 125°14'0 0.0
2018-Aug-11 03:55N 50°02' W 125°14'0 0.0
2018-Aug-11 03:19N 50°02' W 125°14'0 0.0
2018-Aug-11 02:55N 50°02' W 125°14'0 0.0
2018-Aug-11 02:25N 50°02' W 125°14'0 0.0
2018-Aug-11 01:55N 50°02' W 125°14'0 0.0
2018-Aug-11 01:13N 50°02' W 125°14'0 0.0
2018-Aug-11 00:58N 50°02' W 125°14'0 0.0
2018-Aug-11 00:25N 50°02' W 125°14'0 0.0
2018-Aug-10 23:55N 50°02' W 125°14'0 0.0
2018-Aug-10 23:25N 50°02' W 125°14'0 0.0
2018-Aug-10 22:55N 50°02' W 125°14'0 0.0
2018-Aug-10 22:19N 50°02' W 125°14'0 0.0
2018-Aug-10 21:49N 50°02' W 125°14'0 0.0
2018-Aug-10 21:25N 50°02' W 125°14'0 0.0
2018-Aug-10 20:55N 50°02' W 125°14'0 0.0
2018-Aug-10 20:25N 50°02' W 125°14'1 1.1
2018-Aug-10 19:55N 50°02' W 125°15'3 6.7
2018-Aug-10 19:30N 49°60' W 125°12'713.2
2018-Aug-10 19:01N 50°06' W 125°09'816.4
2018-Aug-10 18:31N 50°14' W 125°10'712.6
2018-Aug-10 17:59N 50°18' W 125°19'714.6
2018-Aug-10 17:31N 50°12' W 125°22'1020.6
2018-Aug-10 17:00N 50°02' W 125°14'1 1.6
2018-Aug-10 16:29N 50°02' W 125°14'0 0.0
2018-Aug-10 15:59N 50°02' W 125°14'0 0.0
2018-Aug-10 15:29N 50°02' W 125°14'0 0.0
2018-Aug-10 14:56N 50°02' W 125°14'0 0.0
2018-Aug-10 14:29N 50°02' W 125°14'0 0.0
2018-Aug-10 13:59N 50°02' W 125°14'0 0.0
2018-Aug-10 13:29N 50°02' W 125°14'0 0.0
2018-Aug-10 12:59N 50°02' W 125°14'0 0.0
2018-Aug-10 12:29N 50°02' W 125°14'0 0.0
2018-Aug-10 11:59N 50°02' W 125°14'0 0.0
2018-Aug-10 11:29N 50°02' W 125°14'0 0.0
2018-Aug-10 10:59N 50°02' W 125°14'0 0.0
2018-Aug-10 10:29N 50°02' W 125°14'0 0.0
2018-Aug-10 09:56N 50°02' W 125°14'0 0.0
2018-Aug-10 09:29N 50°02' W 125°14'0 0.0
2018-Aug-10 08:59N 50°02' W 125°14'0 0.0
2018-Aug-10 08:29N 50°02' W 125°14'0 0.0
2018-Aug-10 07:59N 50°02' W 125°14'0 0.0
2018-Aug-10 07:29N 50°02' W 125°14'0 0.0
2018-Aug-10 06:59N 50°02' W 125°14'0 0.0
2018-Aug-10 06:29N 50°02' W 125°14'0 0.0
2018-Aug-10 05:59N 50°02' W 125°14'0 0.0
2018-Aug-10 05:29N 50°02' W 125°14'0 0.0
2018-Aug-10 04:59N 50°02' W 125°14'0 0.0
2018-Aug-10 04:29N 50°02' W 125°14'0 0.0
2018-Aug-10 03:59N 50°02' W 125°14'0 0.0
2018-Aug-10 03:29N 50°02' W 125°14'0 0.0
2018-Aug-10 02:59N 50°02' W 125°14'0 0.0
2018-Aug-10 02:26N 50°02' W 125°14'0 0.0
2018-Aug-10 01:59N 50°02' W 125°14'0 0.0
2018-Aug-10 01:26N 50°02' W 125°14'0 0.0
2018-Aug-10 00:59N 50°02' W 125°14'0 0.0
2018-Aug-10 00:29N 50°02' W 125°14'0 0.0
2018-Aug-09 23:59N 50°02' W 125°14'0 0.0
2018-Aug-09 23:26N 50°02' W 125°14'0 0.0
2018-Aug-09 22:59N 50°02' W 125°14'  
Track history (hours):
 
Tides and Currents Weather Stations Pressure Air Temp Water Temp Dewpoint Dewpoint Depression Visibility Wind Speed Wind Dir Waves Ship Positions

Cape Palmerston

Last reported at 2018-Aug-19 22:30 UTC. Time now 2018-Aug-19 22:51 UTC.
Position N 50°02' W 125°14'.

Length 15 m; draft 0.8 m.

Type: SAR. MMSI: 316017163.

Date/timePositionNaut miles runAvg speedWind from/ knotsBaromVisibWave heightAir tempDewpointWater temp
2018-Aug-19 22:30N 50°02' W 125°14'0 0.0
2018-Aug-19 22:00N 50°02' W 125°14'0 0.0
2018-Aug-19 21:30N 50°02' W 125°14'0 0.0
2018-Aug-19 21:00N 50°02' W 125°14'0 0.0
2018-Aug-19 20:30N 50°02' W 125°14'0 0.0
2018-Aug-19 20:00N 50°02' W 125°14'0 0.0
2018-Aug-19 19:30N 50°02' W 125°14'0 0.0
2018-Aug-19 19:00N 50°02' W 125°14'0 0.0
2018-Aug-19 18:30N 50°02' W 125°14'0 0.0
2018-Aug-19 18:00N 50°02' W 125°14'0 0.0
2018-Aug-19 17:30N 50°02' W 125°14'0 0.0
2018-Aug-19 17:00N 50°02' W 125°14'0 0.0
2018-Aug-19 16:30N 50°02' W 125°14'0 0.0
2018-Aug-19 16:00N 50°02' W 125°14'0 0.0
2018-Aug-19 15:30N 50°02' W 125°14'0 0.0
2018-Aug-19 15:00N 50°02' W 125°14'0 0.0
2018-Aug-19 14:30N 50°02' W 125°14'0 0.0
2018-Aug-19 14:00N 50°02' W 125°14'0 0.0
2018-Aug-19 13:30N 50°02' W 125°14'0 0.0
2018-Aug-19 13:00N 50°02' W 125°14'0 0.0
2018-Aug-19 12:30N 50°02' W 125°14'0 0.0
2018-Aug-19 12:00N 50°02' W 125°14'0 0.0
2018-Aug-19 11:30N 50°02' W 125°14'0 0.0
2018-Aug-19 11:00N 50°02' W 125°14'0 0.0
2018-Aug-19 10:30N 50°02' W 125°14'0 0.0
2018-Aug-19 10:00N 50°02' W 125°14'0 0.0
2018-Aug-19 09:31N 50°02' W 125°14'0 0.0
2018-Aug-19 08:58N 50°02' W 125°14'0 0.0
2018-Aug-19 08:28N 50°02' W 125°14'2 5.4
2018-Aug-19 08:00N 50°04' W 125°16'713.3
2018-Aug-19 07:28N 50°10' W 125°22'1 3.0
2018-Aug-19 07:00N 50°11' W 125°21'1 2.8
2018-Aug-19 06:30N 50°10' W 125°22'2 3.1
2018-Aug-19 06:00N 50°08' W 125°21'815.9
2018-Aug-19 05:30N 50°02' W 125°14'0 0.1
2018-Aug-19 04:58N 50°02' W 125°14'0 0.0
2018-Aug-19 04:28N 50°02' W 125°14'0 0.0
2018-Aug-19 03:58N 50°02' W 125°14'0 0.0
2018-Aug-19 03:28N 50°02' W 125°14'0 0.0
2018-Aug-19 02:58N 50°02' W 125°14'0 0.0
2018-Aug-19 02:28N 50°02' W 125°14'0 0.0
2018-Aug-19 01:55N 50°02' W 125°14'0 0.0
2018-Aug-19 01:28N 50°02' W 125°14'0 0.0
2018-Aug-19 00:58N 50°02' W 125°14'0 0.0
2018-Aug-19 00:28N 50°02' W 125°14'0 0.0
2018-Aug-18 23:58N 50°02' W 125°14'0 0.0
2018-Aug-18 23:28N 50°02' W 125°14'0 0.0
2018-Aug-18 22:58N 50°02' W 125°14'0 0.0
2018-Aug-18 22:25N 50°02' W 125°14'0 0.0
2018-Aug-18 21:58N 50°02' W 125°14'0 0.0
2018-Aug-18 21:28N 50°02' W 125°14'0 0.0
2018-Aug-18 20:58N 50°02' W 125°14'0 0.0
2018-Aug-18 20:19N 50°02' W 125°14'0 0.0
2018-Aug-18 19:58N 50°02' W 125°14'1 1.0
2018-Aug-18 19:27N 50°02' W 125°15'1 2.2
2018-Aug-18 19:00N 50°01' W 125°14'1 2.0
2018-Aug-18 18:30N 50°01' W 125°12'0 0.0
2018-Aug-18 17:55N 50°01' W 125°12'0 0.3
2018-Aug-18 17:29N 50°01' W 125°12'1 2.5
2018-Aug-18 16:59N 50°02' W 125°14'0 0.4
2018-Aug-18 16:29N 50°02' W 125°14'0 0.0
2018-Aug-18 15:59N 50°02' W 125°14'0 0.0
2018-Aug-18 15:26N 50°02' W 125°14'0 0.0
2018-Aug-18 14:59N 50°02' W 125°14'0 0.0
2018-Aug-18 14:29N 50°02' W 125°14'0 0.0
2018-Aug-18 13:56N 50°02' W 125°14'0 0.0
2018-Aug-18 13:29N 50°02' W 125°14'0 0.0
2018-Aug-18 12:59N 50°02' W 125°14'0 0.0
2018-Aug-18 12:29N 50°02' W 125°14'0 0.0
2018-Aug-18 11:59N 50°02' W 125°14'0 0.0
2018-Aug-18 11:29N 50°02' W 125°14'0 0.0
2018-Aug-18 10:59N 50°02' W 125°14'0 0.0
2018-Aug-18 10:29N 50°02' W 125°14'0 0.0
2018-Aug-18 09:59N 50°02' W 125°14'0 0.0
2018-Aug-18 09:29N 50°02' W 125°14'0 0.0
2018-Aug-18 08:59N 50°02' W 125°14'0 0.0
2018-Aug-18 08:29N 50°02' W 125°14'0 0.0
2018-Aug-18 07:59N 50°02' W 125°14'0 0.0
2018-Aug-18 07:29N 50°02' W 125°14'0 0.0
2018-Aug-18 06:59N 50°02' W 125°14'0 0.0
2018-Aug-18 06:29N 50°02' W 125°14'0 0.0
2018-Aug-18 05:59N 50°02' W 125°14'0 0.0
2018-Aug-18 05:26N 50°02' W 125°14'0 0.0
2018-Aug-18 04:56N 50°02' W 125°14'0 0.0
2018-Aug-18 04:29N 50°02' W 125°14'0 0.0
2018-Aug-18 03:56N 50°02' W 125°14'0 0.0
2018-Aug-18 03:29N 50°02' W 125°14'2 5.1
2018-Aug-18 03:01N 49°60' W 125°12'815.6
2018-Aug-18 02:28N 49°57' W 124°60'0 0.1
2018-Aug-18 01:59N 49°57' W 124°60'0 0.2
2018-Aug-18 01:30N 49°57' W 124°60'1 1.0
2018-Aug-18 00:55N 49°57' W 125°00'820.9
2018-Aug-18 00:30N 50°00' W 125°13'2 3.0
2018-Aug-17 23:55N 50°02' W 125°14'0 0.0
2018-Aug-17 23:28N 50°02' W 125°14'0 0.0
2018-Aug-17 22:58N 50°02' W 125°14'0 0.0
2018-Aug-17 22:28N 50°02' W 125°14'0 0.0
2018-Aug-17 21:58N 50°02' W 125°14'0 0.0
2018-Aug-17 21:28N 50°02' W 125°14'0 0.0
2018-Aug-17 20:58N 50°02' W 125°14'0 0.0
2018-Aug-17 20:28N 50°02' W 125°14'0 0.0
2018-Aug-17 19:58N 50°02' W 125°14'0 0.0
2018-Aug-17 19:28N 50°02' W 125°14'0 0.0
2018-Aug-17 18:58N 50°02' W 125°14'0 0.0
2018-Aug-17 18:28N 50°02' W 125°14'0 0.0
2018-Aug-17 17:58N 50°02' W 125°14'0 0.0
2018-Aug-17 17:28N 50°02' W 125°14'0 0.0
2018-Aug-17 16:58N 50°02' W 125°14'0 0.0
2018-Aug-17 16:28N 50°02' W 125°14'0 0.0
2018-Aug-17 15:58N 50°02' W 125°14'0 0.0
2018-Aug-17 15:28N 50°02' W 125°14'0 0.0
2018-Aug-17 14:58N 50°02' W 125°14'0 0.0
2018-Aug-17 14:28N 50°02' W 125°14'0 0.0
2018-Aug-17 13:28N 50°02' W 125°14'0 0.0
2018-Aug-17 12:58N 50°02' W 125°14'0 0.0
2018-Aug-17 12:28N 50°02' W 125°14'0 0.0
2018-Aug-17 11:58N 50°02' W 125°14'0 0.0
2018-Aug-17 11:28N 50°02' W 125°14'0 0.0
2018-Aug-17 10:58N 50°02' W 125°14'0 0.0
2018-Aug-17 10:28N 50°02' W 125°14'0 0.0
2018-Aug-17 09:58N 50°02' W 125°14'0 0.0
2018-Aug-17 09:28N 50°02' W 125°14'0 0.0
2018-Aug-17 08:58N 50°02' W 125°14'0 0.0
2018-Aug-17 08:28N 50°02' W 125°14'0 0.0
2018-Aug-17 07:58N 50°02' W 125°14'0 0.0
2018-Aug-17 07:28N 50°02' W 125°14'0 0.0
2018-Aug-17 06:58N 50°02' W 125°14'0 0.0
2018-Aug-17 06:28N 50°02' W 125°14'0 0.0
2018-Aug-17 05:58N 50°02' W 125°14'0 0.0
2018-Aug-17 05:28N 50°02' W 125°14'0 0.0
2018-Aug-17 04:58N 50°02' W 125°14'0 0.0
2018-Aug-17 04:28N 50°02' W 125°14'0 0.0
2018-Aug-17 03:58N 50°02' W 125°14'0 0.0
2018-Aug-17 03:28N 50°02' W 125°14'0 0.0
2018-Aug-17 02:58N 50°02' W 125°14'0 0.0
2018-Aug-17 02:28N 50°02' W 125°14'0 0.0
2018-Aug-17 01:55N 50°02' W 125°14'0 0.0
2018-Aug-17 01:28N 50°02' W 125°14'0 0.0
2018-Aug-17 00:58N 50°02' W 125°14'0 0.0
2018-Aug-17 00:28N 50°02' W 125°14'0 0.0
2018-Aug-16 23:58N 50°02' W 125°14'0 0.0
2018-Aug-16 23:28N 50°02' W 125°14'0 0.0
2018-Aug-16 22:58N 50°02' W 125°14'0 0.0
2018-Aug-16 22:28N 50°02' W 125°14'0 0.0
2018-Aug-16 21:58N 50°02' W 125°14'0 0.0
2018-Aug-16 21:16N 50°02' W 125°14'0 0.0
2018-Aug-16 20:55N 50°02' W 125°14'0 0.0
2018-Aug-16 20:25N 50°02' W 125°14'0 0.0
2018-Aug-16 19:43N 50°02' W 125°14'0 0.0
2018-Aug-16 19:28N 50°02' W 125°14'0 0.0
2018-Aug-16 18:58N 50°02' W 125°14'0 0.0
2018-Aug-16 18:28N 50°02' W 125°14'0 0.0
2018-Aug-16 17:58N 50°02' W 125°14'0 0.0
2018-Aug-16 17:28N 50°02' W 125°14'0 0.0
2018-Aug-16 16:58N 50°02' W 125°14'0 0.0
2018-Aug-16 16:28N 50°02' W 125°14'0 0.0
2018-Aug-16 15:58N 50°02' W 125°14'0 0.0
2018-Aug-16 15:28N 50°02' W 125°14'0 0.0
2018-Aug-16 14:58N 50°02' W 125°14'0 0.0
2018-Aug-16 14:28N 50°02' W 125°14'0 0.0
2018-Aug-16 13:55N 50°02' W 125°14'0 0.0
2018-Aug-16 13:25N 50°02' W 125°14'0 0.0
2018-Aug-16 12:55N 50°02' W 125°14'0 0.0
2018-Aug-16 12:20N 50°02' W 125°14'1 4.0
2018-Aug-16 12:01N 50°03' W 125°13'1 2.1
2018-Aug-16 11:23N 50°02' W 125°14'0 0.0
2018-Aug-16 10:59N 50°02' W 125°14'0 0.0
2018-Aug-16 10:23N 50°02' W 125°14'0 0.0
2018-Aug-16 09:44N 50°02' W 125°14'0 0.0
2018-Aug-16 09:29N 50°02' W 125°14'0 0.0
2018-Aug-16 08:59N 50°02' W 125°14'1 2.7
2018-Aug-16 08:31N 50°03' W 125°13'1 2.2
2018-Aug-16 07:56N 50°02' W 125°14'0 0.0
2018-Aug-16 07:26N 50°02' W 125°14'0 0.0
2018-Aug-16 06:56N 50°02' W 125°14'0 0.0
2018-Aug-16 06:26N 50°02' W 125°14'0 0.0
2018-Aug-16 05:56N 50°02' W 125°14'0 0.0
2018-Aug-16 05:26N 50°02' W 125°14'0 0.0
2018-Aug-16 04:59N 50°02' W 125°14'0 0.0
2018-Aug-16 04:23N 50°02' W 125°14'0 0.0
2018-Aug-16 03:50N 50°02' W 125°14'0 0.0
2018-Aug-16 03:29N 50°02' W 125°14'0 0.0
2018-Aug-16 02:59N 50°02' W 125°14'0 0.0
2018-Aug-16 02:29N 50°02' W 125°14'0 0.0
2018-Aug-16 01:59N 50°02' W 125°14'0 0.0
2018-Aug-16 01:20N 50°02' W 125°14'0 0.0
2018-Aug-16 00:56N 50°02' W 125°14'0 0.0
2018-Aug-16 00:29N 50°02' W 125°14'0 0.0
2018-Aug-15 23:59N 50°02' W 125°14'0 0.0
2018-Aug-15 23:23N 50°02' W 125°14'0 0.0
2018-Aug-15 22:59N 50°02' W 125°14'0 0.0
2018-Aug-15 19:32N 50°02' W 125°14'0 0.0
2018-Aug-15 19:23N 50°02' W 125°14'0 0.0
2018-Aug-15 18:56N 50°02' W 125°14'1 1.8
2018-Aug-15 18:30N 50°02' W 125°14'1 0.3
2018-Aug-15 16:12N 50°02' W 125°14'0 0.0
2018-Aug-15 16:00N 50°02' W 125°14'0 0.0
2018-Aug-15 15:27N 50°02' W 125°14'0 0.0
2018-Aug-15 14:57N 50°02' W 125°14'0 0.0
2018-Aug-15 14:27N 50°02' W 125°14'0 0.0
2018-Aug-15 13:51N 50°02' W 125°14'0 0.0
2018-Aug-15 13:27N 50°02' W 125°14'0 0.0
2018-Aug-15 12:57N 50°02' W 125°14'0 0.0
2018-Aug-15 12:27N 50°02' W 125°14'0 0.0
2018-Aug-15 11:57N 50°02' W 125°14'0 0.0
2018-Aug-15 10:15N 50°02' W 125°14'0 0.0
2018-Aug-15 09:57N 50°02' W 125°14'0 0.0
2018-Aug-15 09:27N 50°02' W 125°14'0 0.0
2018-Aug-15 08:51N 50°02' W 125°14'0 0.0
2018-Aug-15 08:21N 50°02' W 125°14'0 0.0
2018-Aug-15 07:51N 50°02' W 125°14'0 0.0
2018-Aug-15 06:33N 50°02' W 125°14'0 0.0
2018-Aug-15 06:24N 50°02' W 125°14'411.1
2018-Aug-15 06:00N 49°60' W 125°09'815.9
2018-Aug-15 05:30N 50°04' W 124°59'713.0
2018-Aug-15 05:00N 50°00' W 125°07'5 7.9
2018-Aug-15 04:21N 50°02' W 125°14'0 0.0
2018-Aug-15 02:24N 50°02' W 125°14'0 0.0
2018-Aug-15 01:45N 50°02' W 125°14'0 0.0
2018-Aug-15 01:30N 50°02' W 125°14'0 0.0
2018-Aug-15 00:57N 50°02' W 125°14'0 0.0
2018-Aug-14 23:51N 50°02' W 125°14'0 0.0
2018-Aug-14 23:24N 50°02' W 125°14'0 0.0
2018-Aug-14 23:00N 50°02' W 125°14'0 0.0
2018-Aug-14 22:18N 50°02' W 125°14'0 0.0
2018-Aug-14 22:00N 50°02' W 125°14'0 0.0
2018-Aug-14 21:30N 50°02' W 125°14'0 0.0
2018-Aug-14 21:00N 50°02' W 125°14'0 0.0
2018-Aug-14 20:30N 50°02' W 125°14'0 0.0
2018-Aug-14 19:54N 50°02' W 125°14'0 0.0
2018-Aug-14 19:30N 50°02' W 125°14'0 0.0
2018-Aug-14 18:24N 50°02' W 125°14'0 0.0
2018-Aug-14 17:45N 50°02' W 125°14'0 0.0
2018-Aug-14 17:30N 50°02' W 125°14'0 0.0
2018-Aug-14 16:12N 50°02' W 125°14'0 0.0
2018-Aug-14 16:00N 50°02' W 125°14'0 0.0
2018-Aug-14 14:24N 50°02' W 125°14'0 0.0
2018-Aug-14 13:42N 50°02' W 125°14'0 0.0
2018-Aug-14 13:27N 50°02' W 125°14'0 0.0
2018-Aug-14 12:57N 50°02' W 125°14'0 0.0
2018-Aug-14 12:27N 50°02' W 125°14'0 0.0
2018-Aug-14 11:33N 50°02' W 125°14'0 0.0
2018-Aug-14 11:21N 50°02' W 125°14'0 0.0
2018-Aug-14 10:27N 50°02' W 125°14'1 2.1
2018-Aug-14 10:00N 50°01' W 125°13'815.2
2018-Aug-14 09:31N 50°03' W 125°02'0 0.5
2018-Aug-14 09:01N 50°03' W 125°01'815.8
2018-Aug-14 08:31N 50°01' W 125°13'1 1.5
2018-Aug-14 08:00N 50°02' W 125°14'0 0.0
2018-Aug-14 07:30N 50°02' W 125°14'0 0.0
2018-Aug-14 07:00N 50°02' W 125°14'0 0.0
2018-Aug-14 06:30N 50°02' W 125°14'0 0.0
2018-Aug-14 06:01N 50°02' W 125°14'0 0.0
2018-Aug-14 05:28N 50°02' W 125°14'0 0.0
2018-Aug-14 04:59N 50°02' W 125°14'0 0.0
2018-Aug-14 04:00N 50°02' W 125°14'0 0.0
2018-Aug-14 03:30N 50°02' W 125°14'0 0.0
2018-Aug-14 02:41N 50°02' W 125°14'0 0.0
2018-Aug-14 02:30N 50°02' W 125°14'0 0.0
2018-Aug-14 01:58N 50°02' W 125°14'0 0.0
2018-Aug-14 01:30N 50°02' W 125°14'0 0.0
2018-Aug-14 01:00N 50°02' W 125°14'0 0.0
2018-Aug-14 00:30N 50°02' W 125°14'0 0.0
2018-Aug-14 00:00N 50°02' W 125°14'0 0.0
2018-Aug-13 23:30N 50°02' W 125°14'0 0.0
2018-Aug-13 23:01N 50°02' W 125°14'0 0.0
2018-Aug-13 22:31N 50°02' W 125°14'0 0.0
2018-Aug-13 22:00N 50°02' W 125°14'0 0.0
2018-Aug-13 21:31N 50°02' W 125°14'0 0.0
2018-Aug-13 21:01N 50°02' W 125°14'0 0.0
2018-Aug-13 20:31N 50°02' W 125°14'0 0.0
2018-Aug-13 20:01N 50°02' W 125°14'0 0.0
2018-Aug-13 19:31N 50°02' W 125°14'0 0.0
2018-Aug-13 19:00N 50°02' W 125°14'0 0.0
2018-Aug-13 18:30N 50°02' W 125°14'0 0.0
2018-Aug-13 18:00N 50°02' W 125°14'0 0.0
2018-Aug-13 17:30N 50°02' W 125°14'0 0.0
2018-Aug-13 17:01N 50°02' W 125°14'0 0.0
2018-Aug-13 16:30N 50°02' W 125°14'0 0.0
2018-Aug-13 16:00N 50°02' W 125°14'0 0.0
2018-Aug-13 14:19N 50°02' W 125°14'0 0.0
2018-Aug-13 14:01N 50°02' W 125°14'0 0.0
2018-Aug-13 13:30N 50°02' W 125°14'0 0.0
2018-Aug-13 13:01N 50°02' W 125°14'0 0.0
2018-Aug-13 12:31N 50°02' W 125°14'0 0.0
2018-Aug-13 12:00N 50°02' W 125°14'0 0.0
2018-Aug-13 11:30N 50°02' W 125°14'0 0.0
2018-Aug-13 11:01N 50°02' W 125°14'0 0.0
2018-Aug-13 10:30N 50°02' W 125°14'0 0.0
2018-Aug-13 10:00N 50°02' W 125°14'0 0.0
2018-Aug-13 09:30N 50°02' W 125°14'0 0.0
2018-Aug-13 09:00N 50°02' W 125°14'0 0.0
2018-Aug-13 08:30N 50°02' W 125°14'0 0.0
2018-Aug-13 08:01N 50°02' W 125°14'0 0.0
2018-Aug-13 07:31N 50°02' W 125°14'0 0.0
2018-Aug-13 07:01N 50°02' W 125°14'0 0.0
2018-Aug-13 06:30N 50°02' W 125°14'0 0.0
2018-Aug-13 06:01N 50°02' W 125°14'0 0.0
2018-Aug-13 05:30N 50°02' W 125°14'0 0.0
2018-Aug-13 05:00N 50°02' W 125°14'0 0.0
2018-Aug-13 04:30N 50°02' W 125°14'0 0.0
2018-Aug-13 04:00N 50°02' W 125°14'0 0.0
2018-Aug-13 03:30N 50°02' W 125°14'0 0.0
2018-Aug-13 03:01N 50°02' W 125°14'0 0.0
2018-Aug-13 02:30N 50°02' W 125°14'0 0.0
2018-Aug-13 02:00N 50°02' W 125°14'0 0.0
2018-Aug-13 01:30N 50°02' W 125°14'0 0.0
2018-Aug-13 01:00N 50°02' W 125°14'0 0.0
2018-Aug-13 00:30N 50°02' W 125°14'0 0.0
2018-Aug-13 00:00N 50°02' W 125°14'0 0.0
2018-Aug-12 23:30N 50°02' W 125°14'0 0.0
2018-Aug-12 23:01N 50°02' W 125°14'0 0.0
2018-Aug-12 22:30N 50°02' W 125°14'0 0.0
2018-Aug-12 22:00N 50°02' W 125°14'0 0.0
2018-Aug-12 21:31N 50°02' W 125°14'0 0.0
2018-Aug-12 21:00N 50°02' W 125°14'0 0.0
2018-Aug-12 20:31N 50°02' W 125°14'0 0.0
2018-Aug-12 20:01N 50°02' W 125°14'0 0.0
2018-Aug-12 19:31N 50°02' W 125°14'0 0.0
2018-Aug-12 19:01N 50°02' W 125°14'0 0.6
2018-Aug-12 18:30N 50°02' W 125°14'3 5.1
2018-Aug-12 18:00N 50°04' W 125°14'2 4.8
2018-Aug-12 17:31N 50°02' W 125°14'0 0.9
2018-Aug-12 16:59N 50°02' W 125°14'0 0.0
2018-Aug-12 16:23N 50°02' W 125°14'0 0.0
2018-Aug-12 15:59N 50°02' W 125°14'0 0.0
2018-Aug-12 15:29N 50°02' W 125°14'0 0.0
2018-Aug-12 14:59N 50°02' W 125°14'0 0.0
2018-Aug-12 14:29N 50°02' W 125°14'0 0.0
2018-Aug-12 13:59N 50°02' W 125°14'0 0.0
2018-Aug-12 13:29N 50°02' W 125°14'0 0.0
2018-Aug-12 12:59N 50°02' W 125°14'0 0.0
2018-Aug-12 12:29N 50°02' W 125°14'0 0.0
2018-Aug-12 11:59N 50°02' W 125°14'0 0.0
2018-Aug-12 11:29N 50°02' W 125°14'0 0.0
2018-Aug-12 10:59N 50°02' W 125°14'0 0.0
2018-Aug-12 10:29N 50°02' W 125°14'0 0.0
2018-Aug-12 09:59N 50°02' W 125°14'0 0.0
2018-Aug-12 09:29N 50°02' W 125°14'0 0.0
2018-Aug-12 08:59N 50°02' W 125°14'0 0.0
2018-Aug-12 08:29N 50°02' W 125°14'0 0.0
2018-Aug-12 07:59N 50°02' W 125°14'0 0.0
2018-Aug-12 07:29N 50°02' W 125°14'0 0.0
2018-Aug-12 06:59N 50°02' W 125°14'0 0.0
2018-Aug-12 06:29N 50°02' W 125°14'0 0.0
2018-Aug-12 05:59N 50°02' W 125°14'0 0.0
2018-Aug-12 05:23N 50°02' W 125°14'0 0.0
2018-Aug-12 04:59N 50°02' W 125°14'0 0.0
2018-Aug-12 04:29N 50°02' W 125°14'0 0.0
2018-Aug-12 03:59N 50°02' W 125°14'0 0.0
2018-Aug-12 03:29N 50°02' W 125°14'0 0.0
2018-Aug-12 02:59N 50°02' W 125°14'0 0.0
2018-Aug-12 02:29N 50°02' W 125°14'0 0.0
2018-Aug-12 01:59N 50°02' W 125°14'0 0.0
2018-Aug-12 01:29N 50°02' W 125°14'0 0.0
2018-Aug-12 00:59N 50°02' W 125°14'0 0.0
2018-Aug-12 00:23N 50°02' W 125°14'0 0.0
2018-Aug-11 23:59N 50°02' W 125°14'0 0.0
2018-Aug-11 23:29N 50°02' W 125°14'0 0.0
2018-Aug-11 22:59N 50°02' W 125°14'0 0.0
2018-Aug-11 22:29N 50°02' W 125°14'0 0.0
2018-Aug-11 21:56N 50°02' W 125°14'0 0.0
2018-Aug-11 21:29N 50°02' W 125°14'0 0.0
2018-Aug-11 20:59N 50°02' W 125°14'0 0.0
2018-Aug-11 20:26N 50°02' W 125°14'0 0.0
2018-Aug-11 19:59N 50°02' W 125°14'0 0.0
2018-Aug-11 19:29N 50°02' W 125°14'0 0.0
2018-Aug-11 18:56N 50°02' W 125°14'0 0.0
2018-Aug-11 18:28N 50°02' W 125°14'0 0.0
2018-Aug-11 17:58N 50°02' W 125°14'0 0.0
2018-Aug-11 17:28N 50°02' W 125°14'0 0.0
2018-Aug-11 16:58N 50°02' W 125°14'0 0.0
2018-Aug-11 16:28N 50°02' W 125°14'0 0.0
2018-Aug-11 15:58N 50°02' W 125°14'0 0.0
2018-Aug-11 15:25N 50°02' W 125°14'0 0.0
2018-Aug-11 14:55N 50°02' W 125°14'0 0.0
2018-Aug-11 14:28N 50°02' W 125°14'0 0.0
2018-Aug-11 13:55N 50°02' W 125°14'0 0.0
2018-Aug-11 13:25N 50°02' W 125°14'0 0.0
2018-Aug-11 12:58N 50°02' W 125°14'0 0.0
2018-Aug-11 12:25N 50°02' W 125°14'0 0.0
2018-Aug-11 11:55N 50°02' W 125°14'0 0.0
2018-Aug-11 11:07N 50°02' W 125°14'0 0.0
2018-Aug-11 10:55N 50°02' W 125°14'0 0.0
2018-Aug-11 10:28N 50°02' W 125°14'0 0.0
2018-Aug-11 09:49N 50°02' W 125°14'0 0.0
2018-Aug-11 09:25N 50°02' W 125°14'0 0.0
2018-Aug-11 08:58N 50°02' W 125°14'0 0.0
2018-Aug-11 08:25N 50°02' W 125°14'0 0.0
2018-Aug-11 07:58N 50°02' W 125°14'0 0.0
2018-Aug-11 07:19N 50°02' W 125°14'0 0.0
2018-Aug-11 06:55N 50°02' W 125°14'0 0.0
2018-Aug-11 06:28N 50°02' W 125°14'0 0.0
2018-Aug-11 05:55N 50°02' W 125°14'0 0.0
2018-Aug-11 05:25N 50°02' W 125°14'0 0.0
2018-Aug-11 04:55N 50°02' W 125°14'0 0.0
2018-Aug-11 04:25N 50°02' W 125°14'0 0.0
2018-Aug-11 03:55N 50°02' W 125°14'0 0.0
2018-Aug-11 03:19N 50°02' W 125°14'0 0.0
2018-Aug-11 02:55N 50°02' W 125°14'0 0.0
2018-Aug-11 02:25N 50°02' W 125°14'0 0.0
2018-Aug-11 01:55N 50°02' W 125°14'0 0.0
2018-Aug-11 01:13N 50°02' W 125°14'0 0.0
2018-Aug-11 00:58N 50°02' W 125°14'0 0.0
2018-Aug-11 00:25N 50°02' W 125°14'0 0.0
2018-Aug-10 23:55N 50°02' W 125°14'0 0.0
2018-Aug-10 23:25N 50°02' W 125°14'0 0.0
2018-Aug-10 22:55N 50°02' W 125°14'0 0.0
2018-Aug-10 22:19N 50°02' W 125°14'0 0.0
2018-Aug-10 21:49N 50°02' W 125°14'0 0.0
2018-Aug-10 21:25N 50°02' W 125°14'0 0.0
2018-Aug-10 20:55N 50°02' W 125°14'0 0.0
2018-Aug-10 20:25N 50°02' W 125°14'1 1.1
2018-Aug-10 19:55N 50°02' W 125°15'3 6.7
2018-Aug-10 19:30N 49°60' W 125°12'713.2
2018-Aug-10 19:01N 50°06' W 125°09'816.4
2018-Aug-10 18:31N 50°14' W 125°10'712.6
2018-Aug-10 17:59N 50°18' W 125°19'714.6
2018-Aug-10 17:31N 50°12' W 125°22'1020.6
2018-Aug-10 17:00N 50°02' W 125°14'1 1.6
2018-Aug-10 16:29N 50°02' W 125°14'0 0.0
2018-Aug-10 15:59N 50°02' W 125°14'0 0.0
2018-Aug-10 15:29N 50°02' W 125°14'0 0.0
2018-Aug-10 14:56N 50°02' W 125°14'0 0.0
2018-Aug-10 14:29N 50°02' W 125°14'0 0.0
2018-Aug-10 13:59N 50°02' W 125°14'0 0.0
2018-Aug-10 13:29N 50°02' W 125°14'0 0.0
2018-Aug-10 12:59N 50°02' W 125°14'0 0.0
2018-Aug-10 12:29N 50°02' W 125°14'0 0.0
2018-Aug-10 11:59N 50°02' W 125°14'0 0.0
2018-Aug-10 11:29N 50°02' W 125°14'0 0.0
2018-Aug-10 10:59N 50°02' W 125°14'0 0.0
2018-Aug-10 10:29N 50°02' W 125°14'0 0.0
2018-Aug-10 09:56N 50°02' W 125°14'0 0.0
2018-Aug-10 09:29N 50°02' W 125°14'0 0.0
2018-Aug-10 08:59N 50°02' W 125°14'0 0.0
2018-Aug-10 08:29N 50°02' W 125°14'0 0.0
2018-Aug-10 07:59N 50°02' W 125°14'0 0.0
2018-Aug-10 07:29N 50°02' W 125°14'0 0.0
2018-Aug-10 06:59N 50°02' W 125°14'0 0.0
2018-Aug-10 06:29N 50°02' W 125°14'0 0.0
2018-Aug-10 05:59N 50°02' W 125°14'0 0.0
2018-Aug-10 05:29N 50°02' W 125°14'0 0.0
2018-Aug-10 04:59N 50°02' W 125°14'0 0.0
2018-Aug-10 04:29N 50°02' W 125°14'0 0.0
2018-Aug-10 03:59N 50°02' W 125°14'0 0.0
2018-Aug-10 03:29N 50°02' W 125°14'0 0.0
2018-Aug-10 02:59N 50°02' W 125°14'0 0.0
2018-Aug-10 02:26N 50°02' W 125°14'0 0.0
2018-Aug-10 01:59N 50°02' W 125°14'0 0.0
2018-Aug-10 01:26N 50°02' W 125°14'0 0.0
2018-Aug-10 00:59N 50°02' W 125°14'0 0.0
2018-Aug-10 00:29N 50°02' W 125°14'0 0.0
2018-Aug-09 23:59N 50°02' W 125°14'0 0.0
2018-Aug-09 23:26N 50°02' W 125°14'0 0.0
2018-Aug-09 22:59N 50°02' W 125°14'  

Dump ship's entire track history